createdAt,value
2023-05-13T00:00:38.291Z,12.21
2023-05-13T00:03:19.185Z,12.14
2023-05-13T00:05:56.729Z,12.21
2023-05-13T00:08:38.135Z,12.28
2023-05-13T00:11:19.116Z,12.32
2023-05-13T00:14:00.503Z,12.26
2023-05-13T00:16:30.410Z,12.27
2023-05-13T00:18:59.872Z,12.25
2023-05-13T00:21:30.101Z,12.29
2023-05-13T00:24:01.149Z,12.32
2023-05-13T00:26:45.348Z,12.32
2023-05-13T00:29:24.434Z,12.31
2023-05-13T00:32:05.146Z,12.22
2023-05-13T00:34:52.967Z,12.22
2023-05-13T00:37:30.164Z,12.18
2023-05-13T00:40:20.759Z,12.22
2023-05-13T00:42:55.732Z,12.24
2023-05-13T00:45:25.043Z,12.18
2023-05-13T00:47:54.925Z,12.22
2023-05-13T00:50:32.362Z,12.21
2023-05-13T00:53:14.749Z,12.23
2023-05-13T00:55:57.282Z,12.24
2023-05-13T00:58:41.668Z,12.15
2023-05-13T01:01:31.500Z,12.12
2023-05-13T01:04:18.650Z,12.16
2023-05-13T01:07:05.285Z,12.17
2023-05-13T01:09:57.464Z,12.15
2023-05-13T01:12:47.366Z,12.13
2023-05-13T01:15:33.613Z,12.15
2023-05-13T01:18:24.356Z,12.14
2023-05-13T01:21:07.358Z,12.14
2023-05-13T01:23:50.888Z,12.14
2023-05-13T01:26:32.868Z,12.11
2023-05-13T01:29:15.483Z,12.05
2023-05-13T01:31:52.676Z,12.00
2023-05-13T01:34:32.801Z,12.00
2023-05-13T01:37:16.017Z,11.99
2023-05-13T01:40:05.816Z,11.95
2023-05-13T01:42:45.036Z,11.94
2023-05-13T01:45:25.954Z,11.96
2023-05-13T01:48:04.364Z,11.90
2023-05-13T01:50:53.385Z,11.89
2023-05-13T01:53:31.825Z,11.85
2023-05-13T01:56:11.567Z,11.87
2023-05-13T01:58:48.293Z,11.83
2023-05-13T02:01:26.881Z,11.82
2023-05-13T02:04:08.244Z,11.81
2023-05-13T02:06:45.178Z,11.79
2023-05-13T02:09:21.629Z,11.77
2023-05-13T02:12:02.024Z,11.77
2023-05-13T02:14:50.418Z,11.70
2023-05-13T02:17:29.686Z,11.67
2023-05-13T02:20:09.321Z,11.50
2023-05-13T02:22:49.861Z,11.51
2023-05-13T02:25:31.132Z,11.54
2023-05-13T02:28:07.256Z,11.56
2023-05-13T02:30:38.254Z,11.57
2023-05-13T02:33:16.934Z,11.59
2023-05-13T02:36:04.577Z,11.64
2023-05-13T02:38:46.032Z,11.59
2023-05-13T02:41:32.753Z,11.54
2023-05-13T02:44:12.870Z,11.54
2023-05-13T02:46:54.809Z,11.55
2023-05-13T02:49:34.154Z,11.54
2023-05-13T02:52:08.627Z,11.53
2023-05-13T02:54:48.843Z,11.50
2023-05-13T02:57:26.959Z,11.47
2023-05-13T03:00:09.597Z,11.48
2023-05-13T03:02:47.616Z,11.43
2023-05-13T03:05:21.760Z,11.44
2023-05-13T03:07:59.914Z,11.44
2023-05-13T03:10:39.564Z,11.38
2023-05-13T03:13:13.708Z,11.34
2023-05-13T03:15:45.274Z,11.34
2023-05-13T03:18:21.103Z,11.35
2023-05-13T03:21:03.069Z,11.32
2023-05-13T03:23:49.849Z,11.28
2023-05-13T03:26:32.071Z,11.25
2023-05-13T03:29:15.173Z,11.24
2023-05-13T03:31:57.589Z,11.25
2023-05-13T03:34:33.270Z,11.24
2023-05-13T03:37:03.446Z,11.20
2023-05-13T03:39:41.912Z,11.20
2023-05-13T03:42:23.502Z,11.19
2023-05-13T03:45:01.646Z,11.11
2023-05-13T03:47:45.685Z,11.13
2023-05-13T03:50:29.012Z,11.15
2023-05-13T03:53:01.916Z,11.13
2023-05-13T03:55:31.385Z,11.13
2023-05-13T03:58:01.278Z,11.13
2023-05-13T04:00:33.794Z,11.15
2023-05-13T04:03:17.327Z,11.14
2023-05-13T04:05:56.799Z,11.13
2023-05-13T04:08:36.114Z,11.16
2023-05-13T04:11:13.142Z,11.13
2023-05-13T04:13:46.869Z,11.13
2023-05-13T04:16:17.511Z,11.14
2023-05-13T04:18:57.905Z,11.14
2023-05-13T04:21:34.158Z,11.07
2023-05-13T04:24:08.189Z,11.05
2023-05-13T04:26:42.928Z,11.06
2023-05-13T04:29:18.734Z,11.07
2023-05-13T04:32:01.861Z,11.06
2023-05-13T04:34:45.068Z,11.09
2023-05-13T04:37:26.939Z,11.09
2023-05-13T04:40:09.445Z,11.09
2023-05-13T04:42:54.664Z,11.14
2023-05-13T04:45:39.022Z,11.17
2023-05-13T04:48:16.146Z,11.10
2023-05-13T04:50:53.492Z,11.14
2023-05-13T04:53:28.978Z,11.13
2023-05-13T04:56:07.988Z,11.21
2023-05-13T04:58:39.346Z,11.24
2023-05-13T05:01:17.387Z,11.29
2023-05-13T05:03:56.948Z,11.32
2023-05-13T05:06:36.940Z,11.32
2023-05-13T05:09:10.697Z,11.40
2023-05-13T05:11:51.166Z,11.45
2023-05-13T05:14:26.837Z,11.46
2023-05-13T05:17:05.789Z,11.50
2023-05-13T05:19:46.538Z,11.54
2023-05-13T05:22:23.857Z,11.66
2023-05-13T05:25:03.570Z,11.67
2023-05-13T05:27:40.757Z,11.71
2023-05-13T05:30:28.331Z,11.78
2023-05-13T05:33:14.423Z,11.84
2023-05-13T05:35:47.892Z,11.89
2023-05-13T05:38:30.907Z,11.95
2023-05-13T05:41:11.242Z,11.99
2023-05-13T05:43:44.518Z,12.07
2023-05-13T05:46:23.797Z,12.15
2023-05-13T05:49:08.140Z,12.25
2023-05-13T05:51:46.369Z,12.33
2023-05-13T05:54:20.420Z,12.40
2023-05-13T05:56:51.551Z,12.45
2023-05-13T05:59:27.263Z,12.48
2023-05-13T06:02:08.811Z,12.57
2023-05-13T06:04:49.764Z,12.62
2023-05-13T06:07:31.959Z,12.66
2023-05-13T06:10:08.649Z,12.74
2023-05-13T06:12:46.030Z,12.79
2023-05-13T06:15:27.477Z,12.80
2023-05-13T06:18:10.903Z,12.83
2023-05-13T06:20:55.054Z,12.95
2023-05-13T06:23:33.597Z,13.09
2023-05-13T06:26:19.350Z,13.23
2023-05-13T06:28:56.373Z,13.25
2023-05-13T06:31:40.185Z,13.39
2023-05-13T06:34:16.692Z,13.47
2023-05-13T06:36:55.711Z,13.53
2023-05-13T06:39:31.701Z,13.56
2023-05-13T06:42:14.118Z,13.76
2023-05-13T06:44:59.678Z,13.88
2023-05-13T06:47:45.815Z,14.06
2023-05-13T06:50:32.234Z,14.13
2023-05-13T06:53:12.577Z,14.46
2023-05-13T06:55:49.079Z,14.63
2023-05-13T06:58:25.277Z,14.67
2023-05-13T07:01:09.061Z,14.63
2023-05-13T07:03:41.891Z,14.60
2023-05-13T07:06:19.237Z,14.71
2023-05-13T07:08:53.705Z,14.74
2023-05-13T07:11:29.082Z,14.81
2023-05-13T07:14:06.085Z,14.85
2023-05-13T07:16:39.386Z,14.90
2023-05-13T07:19:19.524Z,15.08
2023-05-13T07:21:57.063Z,15.14
2023-05-13T07:24:29.145Z,15.33
2023-05-13T07:26:57.764Z,15.34
2023-05-13T07:29:34.362Z,15.33
2023-05-13T07:32:11.798Z,15.40
2023-05-13T07:34:49.831Z,15.45
2023-05-13T07:37:28.231Z,15.65
2023-05-13T07:40:11.077Z,15.74
2023-05-13T07:42:58.858Z,15.74
2023-05-13T07:45:34.291Z,15.80
2023-05-13T07:48:17.774Z,15.89
2023-05-13T07:50:58.731Z,15.92
2023-05-13T07:53:35.657Z,16.02
2023-05-13T07:56:11.352Z,16.01
2023-05-13T07:58:49.301Z,15.89
2023-05-13T08:01:25.617Z,16.06
2023-05-13T08:04:08.441Z,15.98
2023-05-13T08:06:48.189Z,16.12
2023-05-13T08:09:31.988Z,16.07
2023-05-13T08:12:11.121Z,16.34
2023-05-13T08:14:49.980Z,16.45
2023-05-13T08:17:34.569Z,16.66
2023-05-13T08:20:15.289Z,16.72
2023-05-13T08:23:01.207Z,16.84
2023-05-13T08:25:46.792Z,16.92
2023-05-13T08:28:30.122Z,16.98
2023-05-13T08:31:08.794Z,17.32
2023-05-13T08:33:45.976Z,17.19
2023-05-13T08:36:25.787Z,17.38
2023-05-13T08:39:02.645Z,17.43
2023-05-13T08:41:46.385Z,17.56
2023-05-13T08:44:28.892Z,17.48
2023-05-13T08:47:10.821Z,17.72
2023-05-13T08:49:49.375Z,17.65
2023-05-13T08:52:32.866Z,17.63
2023-05-13T08:55:09.983Z,17.88
2023-05-13T08:57:52.767Z,17.73
2023-05-13T09:00:35.632Z,17.87
2023-05-13T09:03:18.333Z,17.89
2023-05-13T09:06:03.880Z,17.89
2023-05-13T09:08:39.074Z,18.13
2023-05-13T09:11:13.944Z,18.38
2023-05-13T09:13:45.525Z,18.30
2023-05-13T09:16:19.041Z,18.35
2023-05-13T09:18:49.543Z,18.34
2023-05-13T09:21:35.547Z,18.33
2023-05-13T09:24:21.758Z,18.41
2023-05-13T09:27:02.725Z,18.44
2023-05-13T09:29:41.653Z,18.65
2023-05-13T09:32:26.557Z,18.78
2023-05-13T09:35:17.737Z,19.25
2023-05-13T09:37:55.516Z,19.11
2023-05-13T09:40:37.643Z,19.13
2023-05-13T09:43:21.267Z,19.01
2023-05-13T09:46:05.329Z,19.44
2023-05-13T09:48:44.706Z,19.51
2023-05-13T09:51:18.079Z,19.51
2023-05-13T09:54:06.127Z,19.32
2023-05-13T09:56:38.935Z,19.37
2023-05-13T09:59:13.456Z,19.50
2023-05-13T10:01:47.880Z,19.73
2023-05-13T10:04:16.733Z,19.93
2023-05-13T10:06:58.908Z,19.80
2023-05-13T10:09:36.812Z,19.75
2023-05-13T10:12:08.857Z,19.87
2023-05-13T10:14:41.336Z,19.97
2023-05-13T10:17:10.729Z,20.06
2023-05-13T10:19:51.269Z,20.10
2023-05-13T10:22:35.938Z,20.03
2023-05-13T10:25:17.772Z,20.14
2023-05-13T10:27:58.592Z,20.42
2023-05-13T10:30:35.911Z,20.52
2023-05-13T10:33:10.723Z,20.35
2023-05-13T10:36:00.610Z,20.55
2023-05-13T10:38:59.735Z,20.72
2023-05-13T10:42:21.343Z,20.45
2023-05-13T10:44:59.714Z,20.63
2023-05-13T10:47:44.420Z,20.79
2023-05-13T10:50:25.730Z,20.74
2023-05-13T10:53:00.647Z,20.66
2023-05-13T10:55:47.600Z,20.48
2023-05-13T10:58:38.123Z,20.61
2023-05-13T11:01:29.603Z,20.67
2023-05-13T11:04:18.159Z,20.55
2023-05-13T11:07:16.536Z,20.77
2023-05-13T11:10:00.694Z,20.95
2023-05-13T11:12:38.270Z,20.97
2023-05-13T11:15:24.283Z,20.87
2023-05-13T11:18:05.088Z,20.81
2023-05-13T11:20:51.495Z,21.10
2023-05-13T11:23:30.381Z,20.95
2023-05-13T11:26:16.897Z,21.08
2023-05-13T11:29:06.480Z,21.02
2023-05-13T11:31:48.716Z,21.06
2023-05-13T11:34:32.100Z,21.31
2023-05-13T11:37:19.784Z,21.35
2023-05-13T11:39:58.811Z,21.19
2023-05-13T11:42:40.698Z,21.64
2023-05-13T11:45:25.422Z,21.62
2023-05-13T11:48:19.118Z,21.50
2023-05-13T11:50:58.616Z,21.69
2023-05-13T11:53:26.951Z,21.85
2023-05-13T11:56:12.879Z,21.93
2023-05-13T11:58:54.304Z,22.12
2023-05-13T12:01:32.704Z,21.85
2023-05-13T12:04:15.883Z,21.94
2023-05-13T12:06:56.673Z,21.98
2023-05-13T12:09:35.482Z,21.59
2023-05-13T12:12:16.392Z,22.00
2023-05-13T12:14:56.886Z,21.80
2023-05-13T12:17:31.631Z,21.72
2023-05-13T12:20:15.502Z,21.81
2023-05-13T12:22:54.770Z,22.10
2023-05-13T12:25:47.697Z,22.10
2023-05-13T12:28:26.033Z,21.95
2023-05-13T12:31:06.385Z,22.18
2023-05-13T12:33:46.869Z,22.32
2023-05-13T12:36:25.640Z,22.05
2023-05-13T12:39:21.405Z,21.78
2023-05-13T12:42:02.813Z,21.82
2023-05-13T12:44:46.181Z,21.45
2023-05-13T12:47:23.108Z,21.61
2023-05-13T12:49:59.388Z,21.35
2023-05-13T12:52:33.263Z,21.36
2023-05-13T12:55:03.188Z,21.21
2023-05-13T12:57:43.319Z,21.28
2023-05-13T13:00:25.261Z,21.41
2023-05-13T13:03:03.526Z,21.54
2023-05-13T13:05:41.489Z,21.64
2023-05-13T13:08:22.781Z,21.56
2023-05-13T13:11:01.246Z,21.81
2023-05-13T13:13:42.621Z,21.46
2023-05-13T13:16:16.211Z,22.20
2023-05-13T13:18:47.549Z,22.27
2023-05-13T13:21:23.967Z,22.14
2023-05-13T13:24:08.906Z,22.14
2023-05-13T13:26:49.878Z,22.21
2023-05-13T13:29:32.359Z,22.39
2023-05-13T13:32:07.305Z,22.47
2023-05-13T13:34:48.108Z,22.32
2023-05-13T13:37:25.816Z,22.37
2023-05-13T13:40:07.541Z,22.40
2023-05-13T13:42:46.502Z,22.11
2023-05-13T13:45:19.024Z,22.17
2023-05-13T13:47:58.518Z,22.39
2023-05-13T13:50:34.499Z,22.28
2023-05-13T13:53:11.002Z,22.31
2023-05-13T13:55:51.068Z,22.14
2023-05-13T13:58:29.584Z,21.87
2023-05-13T14:01:12.419Z,21.82
2023-05-13T14:03:51.438Z,21.92
2023-05-13T14:06:21.815Z,21.73
2023-05-13T14:08:57.587Z,22.02
2023-05-13T14:11:36.420Z,22.11
2023-05-13T14:14:16.349Z,22.16
2023-05-13T14:16:50.195Z,22.03
2023-05-13T14:19:29.397Z,21.78
2023-05-13T14:22:13.048Z,21.61
2023-05-13T14:24:49.125Z,21.39
2023-05-13T14:27:19.224Z,21.22
2023-05-13T14:29:52.545Z,20.91
2023-05-13T14:32:20.765Z,20.51
2023-05-13T14:34:50.302Z,20.13
2023-05-13T14:37:25.935Z,19.97
2023-05-13T14:40:02.783Z,19.76
2023-05-13T14:42:49.306Z,19.72
2023-05-13T14:45:33.292Z,19.71
2023-05-13T14:48:17.190Z,19.99
2023-05-13T14:50:51.021Z,19.78
2023-05-13T14:53:22.824Z,19.68
2023-05-13T14:55:57.325Z,19.55
2023-05-13T14:58:37.534Z,19.70
2023-05-13T15:01:10.813Z,19.79
2023-05-13T15:03:51.650Z,19.79
2023-05-13T15:06:32.852Z,19.71
2023-05-13T15:09:13.835Z,19.88
2023-05-13T15:11:55.982Z,19.64
2023-05-13T15:14:37.501Z,19.71
2023-05-13T15:17:21.138Z,19.92
2023-05-13T15:19:54.687Z,20.17
2023-05-13T15:22:24.543Z,19.97
2023-05-13T15:25:06.961Z,20.12
2023-05-13T15:27:42.292Z,19.97
2023-05-13T15:30:24.333Z,19.98
2023-05-13T15:32:58.529Z,19.78
2023-05-13T15:35:37.257Z,19.58
2023-05-13T15:38:18.044Z,19.35
2023-05-13T15:40:57.316Z,19.21
2023-05-13T15:43:41.252Z,19.27
2023-05-13T15:46:23.930Z,18.92
2023-05-13T15:49:02.218Z,18.88
2023-05-13T15:51:43.106Z,18.82
2023-05-13T15:54:21.339Z,18.73
2023-05-13T15:57:01.214Z,18.72
2023-05-13T15:59:41.501Z,18.83
2023-05-13T16:02:23.467Z,19.02
2023-05-13T16:05:03.268Z,19.03
2023-05-13T16:07:42.369Z,18.84
2023-05-13T16:10:17.712Z,18.95
2023-05-13T16:12:58.253Z,19.09
2023-05-13T16:15:31.835Z,19.15
2023-05-13T16:18:12.950Z,19.30
2023-05-13T16:20:56.816Z,19.40
2023-05-13T16:23:33.708Z,19.71
2023-05-13T16:26:09.931Z,19.60
2023-05-13T16:28:51.078Z,19.44
2023-05-13T16:31:31.825Z,19.41
2023-05-13T16:34:15.377Z,19.32
2023-05-13T16:36:55.872Z,19.33
2023-05-13T16:39:39.919Z,19.27
2023-05-13T16:42:25.653Z,19.25
2023-05-13T16:44:58.941Z,19.05
2023-05-13T16:47:29.815Z,19.01
2023-05-13T16:50:10.652Z,18.91
2023-05-13T16:52:49.962Z,18.86
2023-05-13T16:55:31.129Z,18.80
2023-05-13T16:58:14.620Z,18.77
2023-05-13T17:00:50.450Z,18.75
2023-05-13T17:03:26.266Z,18.83
2023-05-13T17:06:08.473Z,18.71
2023-05-13T17:08:49.447Z,18.66
2023-05-13T17:11:24.278Z,18.61
2023-05-13T17:13:55.236Z,18.65
2023-05-13T17:16:31.268Z,18.66
2023-05-13T17:19:08.065Z,18.57
2023-05-13T17:21:44.288Z,18.55
2023-05-13T17:24:19.127Z,18.63
2023-05-13T17:26:57.773Z,18.70
2023-05-13T17:29:39.526Z,18.63
2023-05-13T17:32:18.578Z,18.59
2023-05-13T17:34:57.457Z,18.55
2023-05-13T17:37:41.782Z,18.66
2023-05-13T17:40:15.695Z,18.49
2023-05-13T17:43:02.967Z,18.40
2023-05-13T17:45:49.484Z,18.38
2023-05-13T17:48:29.228Z,18.33
2023-05-13T17:51:07.663Z,18.27
2023-05-13T17:53:48.437Z,18.24
2023-05-13T17:56:29.250Z,18.34
2023-05-13T17:59:08.137Z,18.35
2023-05-13T18:01:49.749Z,18.25
2023-05-13T18:04:32.626Z,18.23
2023-05-13T18:07:12.266Z,18.15
2023-05-13T18:09:51.031Z,18.13
2023-05-13T18:12:30.960Z,18.33
2023-05-13T18:15:12.067Z,18.12
2023-05-13T18:17:56.648Z,17.93
2023-05-13T18:20:35.776Z,17.91
2023-05-13T18:23:13.795Z,17.86
2023-05-13T18:25:56.305Z,17.80
2023-05-13T18:28:37.469Z,17.87
2023-05-13T18:31:15.799Z,17.69
2023-05-13T18:33:53.711Z,17.67
2023-05-13T18:36:32.938Z,17.61
2023-05-13T18:39:15.664Z,17.58
2023-05-13T18:41:50.546Z,17.50
2023-05-13T18:44:21.523Z,17.48
2023-05-13T18:47:02.250Z,17.39
2023-05-13T18:49:42.249Z,17.30
2023-05-13T18:52:19.479Z,17.17
2023-05-13T18:55:05.856Z,16.99
2023-05-13T18:57:51.951Z,17.03
2023-05-13T19:00:29.477Z,16.89
2023-05-13T19:03:07.755Z,16.82
2023-05-13T19:05:42.025Z,16.77
2023-05-13T19:08:10.186Z,16.63
2023-05-13T19:10:40.696Z,16.53
2023-05-13T19:13:22.262Z,16.43
2023-05-13T19:16:07.585Z,16.32
2023-05-13T19:18:41.897Z,16.23
2023-05-13T19:21:26.106Z,16.14
2023-05-13T19:24:06.384Z,16.00
2023-05-13T19:26:47.076Z,15.97
2023-05-13T19:29:32.333Z,15.90
2023-05-13T19:32:11.955Z,15.79
2023-05-13T19:34:43.360Z,15.62
2023-05-13T19:37:29.037Z,15.59
2023-05-13T19:40:02.561Z,15.54
2023-05-13T19:42:44.169Z,15.47
2023-05-13T19:45:21.742Z,15.40
2023-05-13T19:48:01.438Z,15.39
2023-05-13T19:50:40.065Z,15.27
2023-05-13T19:53:16.377Z,15.21
2023-05-13T19:55:59.116Z,15.05
2023-05-13T19:58:33.565Z,15.08
2023-05-13T20:01:14.928Z,15.14
2023-05-13T20:03:55.364Z,15.03
2023-05-13T20:06:36.572Z,14.97
2023-05-13T20:09:11.969Z,14.85
2023-05-13T20:11:43.236Z,14.76
2023-05-13T20:14:27.694Z,14.75
2023-05-13T20:17:08.429Z,14.59
2023-05-13T20:19:49.210Z,14.68
2023-05-13T20:22:32.987Z,14.60
2023-05-13T20:25:09.174Z,14.57
2023-05-13T20:27:40.009Z,14.53
2023-05-13T20:30:16.512Z,14.43
2023-05-13T20:32:55.630Z,14.46
2023-05-13T20:35:36.840Z,14.30
2023-05-13T20:38:21.982Z,14.28
2023-05-13T20:41:05.357Z,14.19
2023-05-13T20:43:45.029Z,14.11
2023-05-13T20:46:24.476Z,14.12
2023-05-13T20:49:04.317Z,14.10
2023-05-13T20:51:46.603Z,14.08
2023-05-13T20:54:29.076Z,14.08
2023-05-13T20:57:07.592Z,14.04
2023-05-13T20:59:45.377Z,13.99
2023-05-13T21:02:29.496Z,13.93
2023-05-13T21:05:00.797Z,13.96
2023-05-13T21:07:33.019Z,13.88
2023-05-13T21:10:08.501Z,13.87
2023-05-13T21:12:48.022Z,13.91
2023-05-13T21:15:25.704Z,13.88
2023-05-13T21:18:03.430Z,13.79
2023-05-13T21:20:47.377Z,13.79
2023-05-13T21:23:29.141Z,13.72
2023-05-13T21:26:06.263Z,13.73
2023-05-13T21:28:44.270Z,13.67
2023-05-13T21:31:25.131Z,13.73
2023-05-13T21:34:12.862Z,13.68
2023-05-13T21:36:57.468Z,13.74
2023-05-13T21:39:34.116Z,13.72
2023-05-13T21:42:17.291Z,13.67
2023-05-13T21:44:53.323Z,13.67
2023-05-13T21:47:26.250Z,13.65
2023-05-13T21:50:03.649Z,13.71
2023-05-13T21:52:38.389Z,13.70
2023-05-13T21:55:26.547Z,13.69
2023-05-13T21:58:06.609Z,13.60
2023-05-13T22:00:41.897Z,13.57
2023-05-13T22:03:29.660Z,13.52
2023-05-13T22:06:17.524Z,13.55
2023-05-13T22:09:02.120Z,13.55
2023-05-13T22:11:49.869Z,13.56
2023-05-13T22:14:37.544Z,13.60
2023-05-13T22:17:25.364Z,13.59
2023-05-13T22:20:11.592Z,13.61
2023-05-13T22:22:58.420Z,13.64
2023-05-13T22:25:47.546Z,13.62
2023-05-13T22:28:35.282Z,13.60
2023-05-13T22:31:23.087Z,13.62
2023-05-13T22:34:10.871Z,13.58
2023-05-13T22:36:58.609Z,13.55
2023-05-13T22:39:32.097Z,13.55
2023-05-13T22:42:07.918Z,13.58
2023-05-13T22:44:55.901Z,13.58
2023-05-13T22:47:43.846Z,13.58
2023-05-13T22:50:31.583Z,13.61
2023-05-13T22:53:10.274Z,13.63
2023-05-13T22:55:58.092Z,13.65
2023-05-13T22:58:43.611Z,13.68
2023-05-13T23:01:27.873Z,13.67
2023-05-13T23:04:07.693Z,13.64
2023-05-13T23:06:47.698Z,13.64
2023-05-13T23:09:20.764Z,13.64
2023-05-13T23:11:56.734Z,13.65
2023-05-13T23:14:35.600Z,13.67
2023-05-13T23:17:14.464Z,13.64
2023-05-13T23:19:57.191Z,13.56
2023-05-13T23:22:38.374Z,13.51
2023-05-13T23:25:15.181Z,13.56
2023-05-13T23:27:53.612Z,13.62
2023-05-13T23:30:33.224Z,13.59
2023-05-13T23:33:11.241Z,13.61
2023-05-13T23:35:54.111Z,13.59
2023-05-13T23:38:29.603Z,13.59
2023-05-13T23:41:11.220Z,13.58
2023-05-13T23:43:46.073Z,13.59
2023-05-13T23:46:22.335Z,13.58
2023-05-13T23:49:01.457Z,13.52
2023-05-13T23:51:41.969Z,13.52
2023-05-13T23:54:23.766Z,13.56
2023-05-13T23:56:59.319Z,13.54
2023-05-13T23:59:46.843Z,13.54
